Terminal Aerodrome Forecast
Issued by NWS

Home | Current Version | Previous Version | Text Only | Print | Product List | Glossary On
Versions: 1 2 3 4 5 6 7 8 9 10 11 12 13 14 15 16 17
000
FTUS44 KTSA 291140
TAFRVS
TAF
KRVS 291140Z 2912/3012 02011KT 6SM -TSRA BR BKN030CB OVC045
      TEMPO 2912/2916 VRB20G30KT 1SM +TSRA BR OVC015CB
     FM291600 06011KT 5SM -TSRA OVC015CB
     FM300200 21011G18KT P6SM OVC015=

USA.gov is the U.S. government's official web portal to all federal, state and local government web resources and services.